Sichem Hawk — 9HSE9 — position and weather

sailwx.info

Track history (hours):
 
Tides and Currents Weather Stations Pressure Air Temp Water Temp Dewpoint Dewpoint Depression Visibility Wind Speed Wind Dir Waves Ship Positions

Sichem Hawk

Last reported at 2015-Sep-01 17:33 UTC. Time now 2015-Sep-02 06:32 UTC.
Position N 39°21' W 009°56'.

Length 170 m; draft 10 m.

Type: Ship. MMSI: 249445000.

Date/timePositionNaut miles runAvg speedWind from/ knotsBaromVisibWave heightAir tempDewpointWater temp
2015-Sep-01 17:33N 39°21' W 009°56'1313.5
2015-Sep-01 16:33N 39°08' W 009°55'1413.7
2015-Sep-01 15:33N 38°54' W 009°56'1313.2
2015-Sep-01 14:33N 38°41' W 009°56'1313.1
2015-Sep-01 13:33N 38°28' W 009°52'1313.1
2015-Sep-01 12:33N 38°15' W 009°48'1413.9
2015-Sep-01 11:33N 38°02' W 009°45'1414.3
2015-Sep-01 10:33N 37°48' W 009°41'1413.7
2015-Sep-01 09:33N 37°35' W 009°37'5813.4
2015-Sep-01 05:14N 36°41' W 009°10'1114.1
2015-Sep-01 04:29N 36°38' W 008°57'1314.1
2015-Sep-01 03:33N 36°34' W 008°42'7114.1
2015-Aug-31 22:33N 36°14' W 007°18'1713.7
2015-Aug-31 21:18N 36°09' W 006°57'1113.8
2015-Aug-31 20:29N 36°06' W 006°44'18712.4
2015-Aug-31 05:25N 36°21' W 002°52'1514.3
2015-Aug-31 04:24N 36°23' W 002°34'1214.4
2015-Aug-31 03:32N 36°24' W 002°19'2014.4
2015-Aug-31 02:11N 36°28' W 001°55'2614.7
2015-Aug-31 00:26N 36°33' W 001°24'1614.8
2015-Aug-30 23:21N 36°36' W 001°04'1214.8
2015-Aug-30 22:33N 36°38' W 000°50'1514.7
2015-Aug-30 21:33N 36°41' W 000°32'1514.8
2015-Aug-30 20:31N 36°44' W 000°13'1414.8
2015-Aug-30 19:33N 36°47' E 000°05'1514.9
2015-Aug-30 18:33N 36°49' E 000°23'1514.6
2015-Aug-30 17:33N 36°52' E 000°41'1614.4
2015-Aug-30 16:27N 36°56' E 001°00'1314.4
2015-Aug-30 15:33N 36°58' E 001°16'16914.9
2015-Aug-30 04:13N 37°27' E 004°45'1214.4
2015-Aug-30 03:21N 37°29' E 005°00'20714.7
2015-Aug-29 13:18N 37°59' E 009°19'4114.6
2015-Aug-29 10:29N 38°05' E 010°11'1414.5
2015-Aug-29 09:32N 38°07' E 010°28'8914.7
2015-Aug-29 03:28N 38°20' E 012°20'1314.6
2015-Aug-29 02:33N 38°22' E 012°37'2014.5
2015-Aug-29 01:11N 38°25' E 013°02'914.5
2015-Aug-29 00:33N 38°26' E 013°14'1414.6
2015-Aug-28 23:33N 38°24' E 013°32'4614.6
2015-Aug-28 20:23N 38°21' E 014°31'1314.8
2015-Aug-28 19:32N 38°20' E 014°47'1515.1
2015-Aug-28 18:33N 38°19' E 015°06'10 9.8
2015-Aug-28 17:33N 38°13' E 015°16'1 0.6
2015-Aug-28 16:33N 38°13' E 015°16'0 0.0
2015-Aug-28 15:33N 38°13' E 015°16'0 0.0
2015-Aug-28 14:33N 38°13' E 015°16'0 0.0
2015-Aug-28 13:33N 38°13' E 015°16'0 0.0
2015-Aug-28 12:33N 38°13' E 015°16'0 0.0
2015-Aug-28 11:33N 38°13' E 015°16'0 0.0
2015-Aug-28 10:33N 38°13' E 015°16'0 0.0
2015-Aug-28 09:33N 38°13' E 015°16'0 0.0
2015-Aug-28 08:33N 38°13' E 015°16'0 0.0
2015-Aug-28 07:33N 38°13' E 015°16'0 0.0
2015-Aug-28 06:33N 38°13' E 015°16'0 0.0
2015-Aug-28 05:33N 38°13' E 015°16'0 0.0
2015-Aug-28 04:33N 38°13' E 015°16'0 0.0
2015-Aug-28 03:33N 38°13' E 015°16'0 0.0
2015-Aug-28 02:33N 38°13' E 015°16'0 0.0
2015-Aug-28 01:33N 38°13' E 015°16'0 0.0
2015-Aug-28 00:33N 38°13' E 015°16'0 0.0
2015-Aug-27 23:33N 38°13' E 015°16'0 0.0
2015-Aug-27 22:33N 38°13' E 015°16'0 0.0
2015-Aug-27 21:33N 38°13' E 015°16'0 0.0
2015-Aug-27 20:33N 38°13' E 015°16'0 0.0
2015-Aug-27 19:33N 38°13' E 015°16'0 0.0
2015-Aug-27 18:33N 38°13' E 015°16'0 0.0
2015-Aug-27 17:33N 38°13' E 015°16'0 0.0
2015-Aug-27 16:33N 38°13' E 015°16'0 0.0
2015-Aug-27 15:33N 38°13' E 015°16'0 0.0
2015-Aug-27 14:33N 38°13' E 015°16'0 0.0
2015-Aug-27 13:33N 38°13' E 015°16'0 0.0
2015-Aug-27 12:33N 38°13' E 015°16'0 0.0
2015-Aug-27 11:33N 38°13' E 015°16'0 0.3
2015-Aug-27 10:33N 38°13' E 015°16'1 0.6
2015-Aug-27 09:28N 38°13' E 015°17'0 0.0
2015-Aug-27 08:28N 38°13' E 015°17'0 0.0
2015-Aug-27 07:28N 38°13' E 015°17'0 0.1
2015-Aug-27 06:22N 38°13' E 015°17'0 0.1
2015-Aug-27 05:28N 38°13' E 015°17'5 5.0
2015-Aug-27 04:33N 38°17' E 015°21'1414.0
2015-Aug-27 03:33N 38°22' E 015°37'1010.0
2015-Aug-27 02:34N 38°12' E 015°37'1514.7
2015-Aug-27 01:33N 37°57' E 015°35'1413.8
2015-Aug-27 00:34N 37°49' E 015°50'4514.5
2015-Aug-26 21:28N 38°08' E 016°42'  
Track history (hours):
 
Tides and Currents Weather Stations Pressure Air Temp Water Temp Dewpoint Dewpoint Depression Visibility Wind Speed Wind Dir Waves Ship Positions

Sichem Hawk

Last reported at 2015-Sep-01 17:33 UTC. Time now 2015-Sep-02 06:32 UTC.
Position N 39°21' W 009°56'.

Length 170 m; draft 10 m.

Type: Ship. MMSI: 249445000.

Date/timePositionNaut miles runAvg speedWind from/ knotsBaromVisibWave heightAir tempDewpointWater temp
2015-Sep-01 17:33N 39°21' W 009°56'1313.5
2015-Sep-01 16:33N 39°08' W 009°55'1413.7
2015-Sep-01 15:33N 38°54' W 009°56'1313.2
2015-Sep-01 14:33N 38°41' W 009°56'1313.1
2015-Sep-01 13:33N 38°28' W 009°52'1313.1
2015-Sep-01 12:33N 38°15' W 009°48'1413.9
2015-Sep-01 11:33N 38°02' W 009°45'1414.3
2015-Sep-01 10:33N 37°48' W 009°41'1413.7
2015-Sep-01 09:33N 37°35' W 009°37'5813.4
2015-Sep-01 05:14N 36°41' W 009°10'1114.1
2015-Sep-01 04:29N 36°38' W 008°57'1314.1
2015-Sep-01 03:33N 36°34' W 008°42'7114.1
2015-Aug-31 22:33N 36°14' W 007°18'1713.7
2015-Aug-31 21:18N 36°09' W 006°57'1113.8
2015-Aug-31 20:29N 36°06' W 006°44'18712.4
2015-Aug-31 05:25N 36°21' W 002°52'1514.3
2015-Aug-31 04:24N 36°23' W 002°34'1214.4
2015-Aug-31 03:32N 36°24' W 002°19'2014.4
2015-Aug-31 02:11N 36°28' W 001°55'2614.7
2015-Aug-31 00:26N 36°33' W 001°24'1614.8
2015-Aug-30 23:21N 36°36' W 001°04'1214.8
2015-Aug-30 22:33N 36°38' W 000°50'1514.7
2015-Aug-30 21:33N 36°41' W 000°32'1514.8
2015-Aug-30 20:31N 36°44' W 000°13'1414.8
2015-Aug-30 19:33N 36°47' E 000°05'1514.9
2015-Aug-30 18:33N 36°49' E 000°23'1514.6
2015-Aug-30 17:33N 36°52' E 000°41'1614.4
2015-Aug-30 16:27N 36°56' E 001°00'1314.4
2015-Aug-30 15:33N 36°58' E 001°16'16914.9
2015-Aug-30 04:13N 37°27' E 004°45'1214.4
2015-Aug-30 03:21N 37°29' E 005°00'20714.7
2015-Aug-29 13:18N 37°59' E 009°19'4114.6
2015-Aug-29 10:29N 38°05' E 010°11'1414.5
2015-Aug-29 09:32N 38°07' E 010°28'8914.7
2015-Aug-29 03:28N 38°20' E 012°20'1314.6
2015-Aug-29 02:33N 38°22' E 012°37'2014.5
2015-Aug-29 01:11N 38°25' E 013°02'914.5
2015-Aug-29 00:33N 38°26' E 013°14'1414.6
2015-Aug-28 23:33N 38°24' E 013°32'4614.6
2015-Aug-28 20:23N 38°21' E 014°31'1314.8
2015-Aug-28 19:32N 38°20' E 014°47'1515.1
2015-Aug-28 18:33N 38°19' E 015°06'10 9.8
2015-Aug-28 17:33N 38°13' E 015°16'1 0.6
2015-Aug-28 16:33N 38°13' E 015°16'0 0.0
2015-Aug-28 15:33N 38°13' E 015°16'0 0.0
2015-Aug-28 14:33N 38°13' E 015°16'0 0.0
2015-Aug-28 13:33N 38°13' E 015°16'0 0.0
2015-Aug-28 12:33N 38°13' E 015°16'0 0.0
2015-Aug-28 11:33N 38°13' E 015°16'0 0.0
2015-Aug-28 10:33N 38°13' E 015°16'0 0.0
2015-Aug-28 09:33N 38°13' E 015°16'0 0.0
2015-Aug-28 08:33N 38°13' E 015°16'0 0.0
2015-Aug-28 07:33N 38°13' E 015°16'0 0.0
2015-Aug-28 06:33N 38°13' E 015°16'0 0.0
2015-Aug-28 05:33N 38°13' E 015°16'0 0.0
2015-Aug-28 04:33N 38°13' E 015°16'0 0.0
2015-Aug-28 03:33N 38°13' E 015°16'0 0.0
2015-Aug-28 02:33N 38°13' E 015°16'0 0.0
2015-Aug-28 01:33N 38°13' E 015°16'0 0.0
2015-Aug-28 00:33N 38°13' E 015°16'0 0.0
2015-Aug-27 23:33N 38°13' E 015°16'0 0.0
2015-Aug-27 22:33N 38°13' E 015°16'0 0.0
2015-Aug-27 21:33N 38°13' E 015°16'0 0.0
2015-Aug-27 20:33N 38°13' E 015°16'0 0.0
2015-Aug-27 19:33N 38°13' E 015°16'0 0.0
2015-Aug-27 18:33N 38°13' E 015°16'0 0.0
2015-Aug-27 17:33N 38°13' E 015°16'0 0.0
2015-Aug-27 16:33N 38°13' E 015°16'0 0.0
2015-Aug-27 15:33N 38°13' E 015°16'0 0.0
2015-Aug-27 14:33N 38°13' E 015°16'0 0.0
2015-Aug-27 13:33N 38°13' E 015°16'0 0.0
2015-Aug-27 12:33N 38°13' E 015°16'0 0.0
2015-Aug-27 11:33N 38°13' E 015°16'0 0.3
2015-Aug-27 10:33N 38°13' E 015°16'1 0.6
2015-Aug-27 09:28N 38°13' E 015°17'0 0.0
2015-Aug-27 08:28N 38°13' E 015°17'0 0.0
2015-Aug-27 07:28N 38°13' E 015°17'0 0.1
2015-Aug-27 06:22N 38°13' E 015°17'0 0.1
2015-Aug-27 05:28N 38°13' E 015°17'5 5.0
2015-Aug-27 04:33N 38°17' E 015°21'1414.0
2015-Aug-27 03:33N 38°22' E 015°37'1010.0
2015-Aug-27 02:34N 38°12' E 015°37'1514.7
2015-Aug-27 01:33N 37°57' E 015°35'1413.8
2015-Aug-27 00:34N 37°49' E 015°50'4514.5
2015-Aug-26 21:28N 38°08' E 016°42'  

Dump ship's entire track history